sensor_id;sensor_type;location;lat;lon;timestamp;pressure;altitude;pressure_sealevel;temperature;humidity
13068;BME280;6600;51.362;6.686;2023-05-02T00:02:10;101463.31;;;11.54;100.00
13068;BME280;6600;51.362;6.686;2023-05-02T00:04:35;101472.22;;;11.61;100.00
13068;BME280;6600;51.362;6.686;2023-05-02T00:07:01;101463.75;;;11.64;100.00
13068;BME280;6600;51.362;6.686;2023-05-02T00:09:28;101473.28;;;11.74;100.00
13068;BME280;6600;51.362;6.686;2023-05-02T00:11:53;101467.72;;;11.82;100.00
13068;BME280;6600;51.362;6.686;2023-05-02T00:14:18;101462.53;;;11.87;100.00
13068;BME280;6600;51.362;6.686;2023-05-02T00:16:44;101464.63;;;11.85;100.00
13068;BME280;6600;51.362;6.686;2023-05-02T00:19:09;101469.16;;;11.91;100.00
13068;BME280;6600;51.362;6.686;2023-05-02T00:21:34;101466.88;;;11.88;100.00
13068;BME280;6600;51.362;6.686;2023-05-02T00:24:00;101471.19;;;11.76;100.00
13068;BME280;6600;51.362;6.686;2023-05-02T00:26:25;101465.84;;;11.76;100.00
13068;BME280;6600;51.362;6.686;2023-05-02T00:28:51;101470.38;;;11.69;100.00
13068;BME280;6600;51.362;6.686;2023-05-02T00:31:17;101472.59;;;11.58;100.00
13068;BME280;6600;51.362;6.686;2023-05-02T00:33:42;101477.75;;;11.53;100.00
13068;BME280;6600;51.362;6.686;2023-05-02T00:36:17;101478.78;;;11.52;100.00
13068;BME280;6600;51.362;6.686;2023-05-02T00:38:44;101482.44;;;11.38;100.00
13068;BME280;6600;51.362;6.686;2023-05-02T00:41:10;101482.47;;;11.45;100.00
13068;BME280;6600;51.362;6.686;2023-05-02T00:43:35;101487.22;;;11.36;100.00
13068;BME280;6600;51.362;6.686;2023-05-02T00:46:03;101485.75;;;11.34;100.00
13068;BME280;6600;51.362;6.686;2023-05-02T00:48:29;101482.25;;;11.33;100.00
13068;BME280;6600;51.362;6.686;2023-05-02T00:50:54;101484.69;;;11.28;100.00
13068;BME280;6600;51.362;6.686;2023-05-02T00:53:21;101475.63;;;11.29;100.00
13068;BME280;6600;51.362;6.686;2023-05-02T00:55:47;101477.06;;;11.25;100.00
13068;BME280;6600;51.362;6.686;2023-05-02T00:58:15;101482.22;;;11.20;100.00
13068;BME280;6600;51.362;6.686;2023-05-02T01:03:38;101499.28;;;11.06;100.00
13068;BME280;6600;51.362;6.686;2023-05-02T01:06:29;101495.31;;;11.02;100.00
13068;BME280;6600;51.362;6.686;2023-05-02T01:14:34;101505.25;;;11.08;100.00
13068;BME280;6600;51.362;6.686;2023-05-02T01:17:06;101506.97;;;11.22;100.00
13068;BME280;6600;51.362;6.686;2023-05-02T01:19:38;101508.22;;;11.26;100.00
13068;BME280;6600;51.362;6.686;2023-05-02T01:22:07;101511.75;;;11.33;100.00
13068;BME280;6600;51.362;6.686;2023-05-02T01:24:48;101512.38;;;11.35;100.00
13068;BME280;6600;51.362;6.686;2023-05-02T01:29:44;101513.06;;;11.50;100.00
13068;BME280;6600;51.362;6.686;2023-05-02T01:32:11;101511.19;;;11.51;100.00
13068;BME280;6600;51.362;6.686;2023-05-02T01:34:39;101509.53;;;11.50;100.00
13068;BME280;6600;51.362;6.686;2023-05-02T01:37:06;101512.03;;;11.51;100.00
13068;BME280;6600;51.362;6.686;2023-05-02T01:39:35;101512.25;;;11.56;100.00
13068;BME280;6600;51.362;6.686;2023-05-02T01:42:03;101513.28;;;11.62;100.00
13068;BME280;6600;51.362;6.686;2023-05-02T01:44:29;101514.72;;;11.58;100.00
13068;BME280;6600;51.362;6.686;2023-05-02T01:46:59;101524.00;;;11.55;100.00
13068;BME280;6600;51.362;6.686;2023-05-02T01:49:25;101523.81;;;11.63;100.00
13068;BME280;6600;51.362;6.686;2023-05-02T01:51:51;101518.69;;;11.69;100.00
13068;BME280;6600;51.362;6.686;2023-05-02T01:54:19;101526.91;;;11.60;100.00
13068;BME280;6600;51.362;6.686;2023-05-02T01:56:46;101540.34;;;11.67;100.00
13068;BME280;6600;51.362;6.686;2023-05-02T01:59:18;101534.56;;;11.63;100.00
13068;BME280;6600;51.362;6.686;2023-05-02T02:01:44;101540.94;;;11.62;100.00
13068;BME280;6600;51.362;6.686;2023-05-02T02:04:12;101540.16;;;11.69;100.00
13068;BME280;6600;51.362;6.686;2023-05-02T02:06:41;101542.06;;;11.75;100.00
13068;BME280;6600;51.362;6.686;2023-05-02T02:09:08;101548.44;;;11.74;100.00
13068;BME280;6600;51.362;6.686;2023-05-02T02:11:36;101553.00;;;11.80;100.00
13068;BME280;6600;51.362;6.686;2023-05-02T02:14:21;101560.22;;;11.79;100.00
13068;BME280;6600;51.362;6.686;2023-05-02T02:16:49;101553.84;;;11.80;100.00
13068;BME280;6600;51.362;6.686;2023-05-02T02:19:15;101560.22;;;11.79;100.00
13068;BME280;6600;51.362;6.686;2023-05-02T02:21:42;101559.63;;;11.84;100.00
13068;BME280;6600;51.362;6.686;2023-05-02T02:24:10;101561.69;;;11.75;100.00
13068;BME280;6600;51.362;6.686;2023-05-02T02:26:36;101560.81;;;11.68;100.00
13068;BME280;6600;51.362;6.686;2023-05-02T02:29:03;101555.22;;;11.70;100.00
13068;BME280;6600;51.362;6.686;2023-05-02T02:31:33;101560.22;;;11.73;100.00
13068;BME280;6600;51.362;6.686;2023-05-02T02:34:00;101561.88;;;11.74;100.00
13068;BME280;6600;51.362;6.686;2023-05-02T02:36:37;101562.91;;;11.73;100.00
13068;BME280;6600;51.362;6.686;2023-05-02T02:42:12;101568.69;;;11.76;100.00
13068;BME280;6600;51.362;6.686;2023-05-02T02:44:50;101576.97;;;11.75;100.00
13068;BME280;6600;51.362;6.686;2023-05-02T02:47:53;101572.84;;;11.72;100.00
13068;BME280;6600;51.362;6.686;2023-05-02T02:50:10;101576.31;;;11.73;100.00
13068;BME280;6600;51.362;6.686;2023-05-02T02:52:52;101580.59;;;11.60;100.00
13068;BME280;6600;51.362;6.686;2023-05-02T02:55:59;101579.38;;;11.70;100.00
13068;BME280;6600;51.362;6.686;2023-05-02T02:58:45;101581.84;;;11.64;100.00
13068;BME280;6600;51.362;6.686;2023-05-02T03:01:15;101587.22;;;11.64;100.00
13068;BME280;6600;51.362;6.686;2023-05-02T03:03:43;101588.41;;;11.55;100.00
13068;BME280;6600;51.362;6.686;2023-05-02T03:06:09;101592.59;;;11.64;100.00
13068;BME280;6600;51.362;6.686;2023-05-02T03:08:41;101595.91;;;11.66;100.00
13068;BME280;6600;51.362;6.686;2023-05-02T03:11:07;101597.94;;;11.58;100.00
13068;BME280;6600;51.362;6.686;2023-05-02T03:13:33;101593.78;;;11.55;100.00
13068;BME280;6600;51.362;6.686;2023-05-02T03:18:42;101598.38;;;11.61;100.00
13068;BME280;6600;51.362;6.686;2023-05-02T03:21:08;101596.31;;;11.70;100.00
13068;BME280;6600;51.362;6.686;2023-05-02T03:23:33;101593.47;;;11.72;100.00
13068;BME280;6600;51.362;6.686;2023-05-02T03:25:59;101602.97;;;11.74;100.00
13068;BME280;6600;51.362;6.686;2023-05-02T03:28:24;101601.75;;;11.77;100.00
13068;BME280;6600;51.362;6.686;2023-05-02T03:30:49;101595.94;;;11.73;100.00
13068;BME280;6600;51.362;6.686;2023-05-02T03:33:15;101599.88;;;11.77;100.00
13068;BME280;6600;51.362;6.686;2023-05-02T03:35:40;101605.09;;;11.85;100.00
13068;BME280;6600;51.362;6.686;2023-05-02T03:38:06;101601.75;;;11.77;100.00
13068;BME280;6600;51.362;6.686;2023-05-02T03:40:32;101609.63;;;11.85;100.00
13068;BME280;6600;51.362;6.686;2023-05-02T03:42:57;101611.91;;;11.88;100.00
13068;BME280;6600;51.362;6.686;2023-05-02T03:45:22;101615.00;;;11.91;100.00
13068;BME280;6600;51.362;6.686;2023-05-02T03:47:48;101611.31;;;11.92;100.00
13068;BME280;6600;51.362;6.686;2023-05-02T03:50:13;101594.97;;;11.94;100.00
13068;BME280;6600;51.362;6.686;2023-05-02T03:52:38;101602.19;;;11.93;100.00
13068;BME280;6600;51.362;6.686;2023-05-02T03:55:04;101609.66;;;11.98;100.00
13068;BME280;6600;51.362;6.686;2023-05-02T03:57:32;101611.94;;;12.01;100.00
13068;BME280;6600;51.362;6.686;2023-05-02T03:59:57;101620.81;;;12.01;100.00
13068;BME280;6600;51.362;6.686;2023-05-02T04:02:22;101623.69;;;12.00;100.00
13068;BME280;6600;51.362;6.686;2023-05-02T04:04:48;101632.81;;;11.99;100.00
13068;BME280;6600;51.362;6.686;2023-05-02T04:07:13;101636.09;;;12.01;100.00
13068;BME280;6600;51.362;6.686;2023-05-02T04:09:43;101636.97;;;12.08;100.00
13068;BME280;6600;51.362;6.686;2023-05-02T04:12:08;101635.09;;;12.08;100.00
13068;BME280;6600;51.362;6.686;2023-05-02T04:14:34;101640.66;;;12.07;100.00
13068;BME280;6600;51.362;6.686;2023-05-02T04:16:59;101645.00;;;12.08;100.00
13068;BME280;6600;51.362;6.686;2023-05-02T04:19:24;101642.50;;;12.00;100.00
13068;BME280;6600;51.362;6.686;2023-05-02T04:21:50;101652.66;;;12.04;100.00
13068;BME280;6600;51.362;6.686;2023-05-02T04:24:15;101653.03;;;11.95;100.00
13068;BME280;6600;51.362;6.686;2023-05-02T04:26:40;101649.34;;;12.02;100.00
13068;BME280;6600;51.362;6.686;2023-05-02T04:29:06;101652.22;;;12.01;100.00
13068;BME280;6600;51.362;6.686;2023-05-02T04:31:31;101654.31;;;11.99;100.00
13068;BME280;6600;51.362;6.686;2023-05-02T04:33:57;101656.56;;;11.95;100.00
13068;BME280;6600;51.362;6.686;2023-05-02T04:36:23;101661.72;;;11.97;100.00
13068;BME280;6600;51.362;6.686;2023-05-02T04:38:50;101661.91;;;11.89;100.00
13068;BME280;6600;51.362;6.686;2023-05-02T04:41:15;101667.47;;;11.87;100.00
13068;BME280;6600;51.362;6.686;2023-05-02T04:43:41;101666.63;;;11.80;100.00
13068;BME280;6600;51.362;6.686;2023-05-02T04:46:06;101670.31;;;11.79;100.00
13068;BME280;6600;51.362;6.686;2023-05-02T04:48:31;101674.06;;;11.85;100.00
13068;BME280;6600;51.362;6.686;2023-05-02T04:50:58;101674.50;;;11.88;100.00
13068;BME280;6600;51.362;6.686;2023-05-02T04:53:23;101684.00;;;11.91;100.00
13068;BME280;6600;51.362;6.686;2023-05-02T04:55:48;101690.66;;;11.95;100.00
13068;BME280;6600;51.362;6.686;2023-05-02T04:58:14;101695.00;;;11.96;100.00
13068;BME280;6600;51.362;6.686;2023-05-02T05:00:39;101697.69;;;11.96;100.00
13068;BME280;6600;51.362;6.686;2023-05-02T05:03:05;101708.44;;;11.96;100.00
13068;BME280;6600;51.362;6.686;2023-05-02T05:05:31;101716.69;;;12.01;100.00
13068;BME280;6600;51.362;6.686;2023-05-02T05:07:56;101710.03;;;11.90;100.00
13068;BME280;6600;51.362;6.686;2023-05-02T05:10:21;101718.88;;;11.78;100.00
13068;BME280;6600;51.362;6.686;2023-05-02T05:12:47;101716.97;;;11.72;100.00
13068;BME280;6600;51.362;6.686;2023-05-02T05:15:13;101724.28;;;11.56;100.00
13068;BME280;6600;51.362;6.686;2023-05-02T05:17:39;101727.13;;;11.48;100.00
13068;BME280;6600;51.362;6.686;2023-05-02T05:20:05;101737.63;;;11.15;100.00
13068;BME280;6600;51.362;6.686;2023-05-02T05:22:30;101737.56;;;11.09;100.00
13068;BME280;6600;51.362;6.686;2023-05-02T05:24:56;101742.69;;;11.04;100.00
13068;BME280;6600;51.362;6.686;2023-05-02T05:27:21;101739.59;;;11.07;100.00
13068;BME280;6600;51.362;6.686;2023-05-02T05:29:47;101748.31;;;11.09;100.00
13068;BME280;6600;51.362;6.686;2023-05-02T05:32:12;101752.50;;;11.18;100.00
13068;BME280;6600;51.362;6.686;2023-05-02T05:34:37;101742.16;;;11.15;100.00
13068;BME280;6600;51.362;6.686;2023-05-02T05:37:03;101740.63;;;11.27;100.00
13068;BME280;6600;51.362;6.686;2023-05-02T05:39:28;101759.19;;;11.29;100.00
13068;BME280;6600;51.362;6.686;2023-05-02T05:41:54;101759.66;;;11.11;100.00
13068;BME280;6600;51.362;6.686;2023-05-02T05:44:19;101761.63;;;11.24;100.00
13068;BME280;6600;51.362;6.686;2023-05-02T05:46:49;101759.53;;;11.19;100.00
13068;BME280;6600;51.362;6.686;2023-05-02T05:49:15;101774.78;;;11.19;100.00
13068;BME280;6600;51.362;6.686;2023-05-02T05:51:41;101779.38;;;11.25;100.00
13068;BME280;6600;51.362;6.686;2023-05-02T05:54:06;101775.84;;;11.24;100.00
13068;BME280;6600;51.362;6.686;2023-05-02T05:56:31;101777.53;;;11.04;100.00
13068;BME280;6600;51.362;6.686;2023-05-02T05:58:57;101780.72;;;11.14;100.00
13068;BME280;6600;51.362;6.686;2023-05-02T06:01:22;101784.69;;;11.18;100.00
13068;BME280;6600;51.362;6.686;2023-05-02T06:03:47;101795.03;;;11.21;100.00
13068;BME280;6600;51.362;6.686;2023-05-02T06:06:13;101783.41;;;11.14;100.00
13068;BME280;6600;51.362;6.686;2023-05-02T06:08:38;101786.34;;;11.19;100.00
13068;BME280;6600;51.362;6.686;2023-05-02T06:11:07;101800.28;;;11.29;100.00
13068;BME280;6600;51.362;6.686;2023-05-02T06:13:33;101802.97;;;11.08;100.00
13068;BME280;6600;51.362;6.686;2023-05-02T06:16:01;101799.91;;;11.11;100.00
13068;BME280;6600;51.362;6.686;2023-05-02T06:18:27;101806.19;;;11.25;100.00
13068;BME280;6600;51.362;6.686;2023-05-02T06:20:53;101811.63;;;11.31;100.00
13068;BME280;6600;51.362;6.686;2023-05-02T06:23:18;101812.50;;;11.38;100.00
13068;BME280;6600;51.362;6.686;2023-05-02T06:25:44;101820.50;;;11.32;100.00
13068;BME280;6600;51.362;6.686;2023-05-02T06:28:09;101821.97;;;11.34;100.00
13068;BME280;6600;51.362;6.686;2023-05-02T06:30:34;101827.22;;;11.21;100.00
13068;BME280;6600;51.362;6.686;2023-05-02T06:33:03;101832.19;;;11.24;100.00
13068;BME280;6600;51.362;6.686;2023-05-02T06:35:28;101837.56;;;11.24;100.00
13068;BME280;6600;51.362;6.686;2023-05-02T06:37:53;101841.34;;;11.30;100.00
13068;BME280;6600;51.362;6.686;2023-05-02T06:40:19;101842.69;;;11.40;100.00
13068;BME280;6600;51.362;6.686;2023-05-02T06:42:44;101846.03;;;11.49;100.00
13068;BME280;6600;51.362;6.686;2023-05-02T06:45:10;101850.56;;;11.48;100.00
13068;BME280;6600;51.362;6.686;2023-05-02T06:47:35;101855.41;;;11.59;100.00
13068;BME280;6600;51.362;6.686;2023-05-02T06:50:00;101860.16;;;11.57;100.00
13068;BME280;6600;51.362;6.686;2023-05-02T06:52:25;101866.66;;;11.70;100.00
13068;BME280;6600;51.362;6.686;2023-05-02T06:54:51;101867.53;;;11.98;100.00
13068;BME280;6600;51.362;6.686;2023-05-02T06:57:16;101862.97;;;11.98;100.00
13068;BME280;6600;51.362;6.686;2023-05-02T06:59:41;101873.84;;;12.18;99.83
13068;BME280;6600;51.362;6.686;2023-05-02T07:02:07;101877.22;;;12.27;99.85
13068;BME280;6600;51.362;6.686;2023-05-02T07:04:32;101875.97;;;12.29;99.59
13068;BME280;6600;51.362;6.686;2023-05-02T07:06:57;101880.09;;;12.25;99.12
13068;BME280;6600;51.362;6.686;2023-05-02T07:09:23;101882.06;;;12.10;99.51
13068;BME280;6600;51.362;6.686;2023-05-02T07:11:48;101886.50;;;11.96;99.42
13068;BME280;6600;51.362;6.686;2023-05-02T07:14:13;101893.16;;;11.51;99.57
13068;BME280;6600;51.362;6.686;2023-05-02T07:16:39;101900.16;;;11.52;99.16
13068;BME280;6600;51.362;6.686;2023-05-02T07:19:04;101904.66;;;11.45;97.26
13068;BME280;6600;51.362;6.686;2023-05-02T07:21:31;101896.69;;;11.31;94.82
13068;BME280;6600;51.362;6.686;2023-05-02T07:23:56;101904.06;;;11.29;94.53
13068;BME280;6600;51.362;6.686;2023-05-02T07:26:22;101907.41;;;11.31;93.61
13068;BME280;6600;51.362;6.686;2023-05-02T07:28:47;101918.56;;;11.34;93.78
13068;BME280;6600;51.362;6.686;2023-05-02T07:31:13;101911.56;;;11.33;94.14
13068;BME280;6600;51.362;6.686;2023-05-02T07:33:38;101926.25;;;11.37;94.23
13068;BME280;6600;51.362;6.686;2023-05-02T07:36:04;101924.59;;;11.57;93.89
13068;BME280;6600;51.362;6.686;2023-05-02T07:38:29;101923.56;;;11.37;93.29
13068;BME280;6600;51.362;6.686;2023-05-02T07:40:59;101930.78;;;11.37;92.98
13068;BME280;6600;51.362;6.686;2023-05-02T07:43:25;101938.25;;;11.41;92.95
13068;BME280;6600;51.362;6.686;2023-05-02T07:45:50;101941.72;;;11.35;92.54
13068;BME280;6600;51.362;6.686;2023-05-02T07:48:16;101943.63;;;11.20;93.27
13068;BME280;6600;51.362;6.686;2023-05-02T07:50:41;101950.13;;;11.32;93.50
13068;BME280;6600;51.362;6.686;2023-05-02T07:53:06;101957.94;;;11.48;93.82
13068;BME280;6600;51.362;6.686;2023-05-02T07:55:32;101968.09;;;11.32;92.47
13068;BME280;6600;51.362;6.686;2023-05-02T07:57:58;101964.94;;;11.28;92.36
13068;BME280;6600;51.362;6.686;2023-05-02T08:00:23;101968.16;;;11.38;92.35
13068;BME280;6600;51.362;6.686;2023-05-02T08:02:48;101966.00;;;11.27;92.78
13068;BME280;6600;51.362;6.686;2023-05-02T08:05:14;101969.69;;;11.26;92.54
13068;BME280;6600;51.362;6.686;2023-05-02T08:07:39;101972.63;;;11.31;91.97
13068;BME280;6600;51.362;6.686;2023-05-02T08:10:05;101975.53;;;11.15;91.25
13068;BME280;6600;51.362;6.686;2023-05-02T08:12:31;101980.66;;;11.10;91.28
13068;BME280;6600;51.362;6.686;2023-05-02T08:14:56;101983.97;;;11.12;91.35
13068;BME280;6600;51.362;6.686;2023-05-02T08:17:21;101983.69;;;11.07;91.63
13068;BME280;6600;51.362;6.686;2023-05-02T08:19:47;101990.25;;;11.19;91.35
13068;BME280;6600;51.362;6.686;2023-05-02T08:22:12;101984.34;;;11.09;91.24
13068;BME280;6600;51.362;6.686;2023-05-02T08:24:38;101993.19;;;11.24;90.65
13068;BME280;6600;51.362;6.686;2023-05-02T08:27:03;102000.13;;;11.19;91.18
13068;BME280;6600;51.362;6.686;2023-05-02T08:29:29;102010.19;;;11.31;90.76
13068;BME280;6600;51.362;6.686;2023-05-02T08:31:55;102002.56;;;11.49;90.39
13068;BME280;6600;51.362;6.686;2023-05-02T08:34:21;102002.09;;;11.46;89.94
13068;BME280;6600;51.362;6.686;2023-05-02T08:36:46;102015.72;;;11.65;89.57
13068;BME280;6600;51.362;6.686;2023-05-02T08:39:12;102005.41;;;11.84;88.42
13068;BME280;6600;51.362;6.686;2023-05-02T08:41:37;102015.25;;;11.77;87.36
13068;BME280;6600;51.362;6.686;2023-05-02T08:44:05;102012.91;;;11.88;87.59
13068;BME280;6600;51.362;6.686;2023-05-02T08:46:31;102019.72;;;11.91;88.66
13068;BME280;6600;51.362;6.686;2023-05-02T08:49:00;102034.44;;;11.74;89.20
13068;BME280;6600;51.362;6.686;2023-05-02T08:51:26;102035.47;;;11.94;89.19
13068;BME280;6600;51.362;6.686;2023-05-02T08:53:53;102035.53;;;12.00;89.21
13068;BME280;6600;51.362;6.686;2023-05-02T08:56:19;102033.09;;;11.84;87.77
13068;BME280;6600;51.362;6.686;2023-05-02T08:58:45;102040.09;;;11.79;88.31
13068;BME280;6600;51.362;6.686;2023-05-02T09:01:15;102045.25;;;11.80;86.87
13068;BME280;6600;51.362;6.686;2023-05-02T09:03:45;102054.75;;;11.61;86.48
13068;BME280;6600;51.362;6.686;2023-05-02T09:08:42;102052.28;;;11.66;85.68
13068;BME280;6600;51.362;6.686;2023-05-02T09:11:09;102060.34;;;11.66;85.30
13068;BME280;6600;51.362;6.686;2023-05-02T09:13:36;102066.22;;;11.55;85.76
13068;BME280;6600;51.362;6.686;2023-05-02T09:21:04;102070.88;;;12.46;83.91
13068;BME280;6600;51.362;6.686;2023-05-02T09:23:34;102071.69;;;12.75;82.60
13068;BME280;6600;51.362;6.686;2023-05-02T09:26:00;102073.31;;;13.03;82.52
13068;BME280;6600;51.362;6.686;2023-05-02T09:31:09;102073.84;;;12.86;80.18
13068;BME280;6600;51.362;6.686;2023-05-02T09:33:36;102080.91;;;12.65;79.74
13068;BME280;6600;51.362;6.686;2023-05-02T09:36:02;102084.00;;;12.62;80.78
13068;BME280;6600;51.362;6.686;2023-05-02T09:38:28;102090.91;;;12.72;79.15
13068;BME280;6600;51.362;6.686;2023-05-02T09:40:53;102082.78;;;12.93;78.56
13068;BME280;6600;51.362;6.686;2023-05-02T09:43:22;102092.31;;;13.23;78.17
13068;BME280;6600;51.362;6.686;2023-05-02T09:48:26;102089.66;;;13.36;73.58
13068;BME280;6600;51.362;6.686;2023-05-02T09:50:52;102088.84;;;13.36;74.70
13068;BME280;6600;51.362;6.686;2023-05-02T09:53:18;102104.03;;;13.56;74.15
13068;BME280;6600;51.362;6.686;2023-05-02T09:55:43;102104.34;;;13.94;73.13
13068;BME280;6600;51.362;6.686;2023-05-02T09:58:22;102108.09;;;13.93;73.19
13068;BME280;6600;51.362;6.686;2023-05-02T10:00:49;102105.72;;;13.64;72.82
13068;BME280;6600;51.362;6.686;2023-05-02T10:03:16;102103.91;;;13.78;73.82
13068;BME280;6600;51.362;6.686;2023-05-02T10:05:43;102104.34;;;13.88;73.86
13068;BME280;6600;51.362;6.686;2023-05-02T10:08:10;102112.53;;;13.53;73.97
13068;BME280;6600;51.362;6.686;2023-05-02T10:10:37;102121.59;;;13.46;75.16
13068;BME280;6600;51.362;6.686;2023-05-02T10:13:04;102120.09;;;13.02;75.09
13068;BME280;6600;51.362;6.686;2023-05-02T10:15:31;102119.00;;;12.97;75.43
13068;BME280;6600;51.362;6.686;2023-05-02T10:17:59;102123.84;;;12.52;77.49
13068;BME280;6600;51.362;6.686;2023-05-02T10:20:36;102123.84;;;12.52;77.70
13068;BME280;6600;51.362;6.686;2023-05-02T10:23:03;102134.56;;;12.74;77.20
13068;BME280;6600;51.362;6.686;2023-05-02T10:25:31;102128.56;;;12.72;75.92
13068;BME280;6600;51.362;6.686;2023-05-02T10:27:57;102143.13;;;12.84;75.83
13068;BME280;6600;51.362;6.686;2023-05-02T10:30:24;102141.56;;;12.96;75.12
13068;BME280;6600;51.362;6.686;2023-05-02T10:32:51;102137.75;;;12.84;75.05
13068;BME280;6600;51.362;6.686;2023-05-02T10:35:18;102130.94;;;13.09;76.09
13068;BME280;6600;51.362;6.686;2023-05-02T10:37:44;102134.41;;;13.37;74.59
13068;BME280;6600;51.362;6.686;2023-05-02T10:40:13;102139.66;;;13.58;75.72
13068;BME280;6600;51.362;6.686;2023-05-02T10:42:43;102135.19;;;13.72;73.99
13068;BME280;6600;51.362;6.686;2023-05-02T10:45:34;102129.41;;;13.34;73.29
13068;BME280;6600;51.362;6.686;2023-05-02T10:48:16;102149.69;;;13.30;73.23
13068;BME280;6600;51.362;6.686;2023-05-02T10:51:07;102141.63;;;13.02;71.17
13068;BME280;6600;51.362;6.686;2023-05-02T10:53:38;102142.78;;;13.21;71.41
13068;BME280;6600;51.362;6.686;2023-05-02T10:56:21;102134.91;;;13.54;71.69
13068;BME280;6600;51.362;6.686;2023-05-02T10:58:50;102138.28;;;13.76;71.81
13068;BME280;6600;51.362;6.686;2023-05-02T11:01:31;102142.97;;;14.21;70.18
13068;BME280;6600;51.362;6.686;2023-05-02T11:04:05;102139.66;;;14.19;70.58
13068;BME280;6600;51.362;6.686;2023-05-02T11:06:32;102134.88;;;14.08;70.09
13068;BME280;6600;51.362;6.686;2023-05-02T11:11:47;102140.66;;;14.05;71.82
13068;BME280;6600;51.362;6.686;2023-05-02T11:24:49;102155.09;;;14.51;67.21
13068;BME280;6600;51.362;6.686;2023-05-02T11:29:57;102140.84;;;13.97;67.86
13068;BME280;6600;51.362;6.686;2023-05-02T11:32:24;102140.50;;;14.33;68.47
13068;BME280;6600;51.362;6.686;2023-05-02T11:34:50;102141.63;;;14.64;66.59
13068;BME280;6600;51.362;6.686;2023-05-02T11:37:18;102137.25;;;14.63;67.00
13068;BME280;6600;51.362;6.686;2023-05-02T11:39:43;102137.25;;;14.37;67.06
13068;BME280;6600;51.362;6.686;2023-05-02T11:42:29;102147.31;;;14.09;65.13
13068;BME280;6600;51.362;6.686;2023-05-02T11:44:59;102136.13;;;14.25;65.99
13068;BME280;6600;51.362;6.686;2023-05-02T11:47:26;102154.69;;;14.68;64.47
13068;BME280;6600;51.362;6.686;2023-05-02T11:49:55;102141.63;;;14.51;64.48
13068;BME280;6600;51.362;6.686;2023-05-02T11:52:22;102143.41;;;14.25;66.58
13068;BME280;6600;51.362;6.686;2023-05-02T11:54:48;102154.28;;;13.84;66.12
13068;BME280;6600;51.362;6.686;2023-05-02T11:57:14;102158.63;;;13.78;65.91
13068;BME280;6600;51.362;6.686;2023-05-02T11:59:52;102165.34;;;13.54;65.92
13068;BME280;6600;51.362;6.686;2023-05-02T12:02:18;102171.03;;;13.79;66.46
13068;BME280;6600;51.362;6.686;2023-05-02T12:04:44;102164.16;;;13.63;65.60
13068;BME280;6600;51.362;6.686;2023-05-02T12:07:09;102177.22;;;13.66;65.51
13068;BME280;6600;51.362;6.686;2023-05-02T12:09:35;102174.53;;;13.66;63.47
13068;BME280;6600;51.362;6.686;2023-05-02T12:12:00;102176.13;;;14.02;64.60
13068;BME280;6600;51.362;6.686;2023-05-02T12:14:31;102175.22;;;13.82;62.66
13068;BME280;6600;51.362;6.686;2023-05-02T12:16:58;102176.84;;;13.83;63.24
13068;BME280;6600;51.362;6.686;2023-05-02T12:19:24;102181.88;;;13.86;62.94
13068;BME280;6600;51.362;6.686;2023-05-02T12:21:50;102185.50;;;13.65;62.70
13068;BME280;6600;51.362;6.686;2023-05-02T12:24:16;102185.94;;;13.69;62.95
13068;BME280;6600;51.362;6.686;2023-05-02T12:26:41;102187.19;;;13.79;63.25
13068;BME280;6600;51.362;6.686;2023-05-02T12:29:06;102190.53;;;13.81;62.41
13068;BME280;6600;51.362;6.686;2023-05-02T12:31:33;102184.66;;;14.25;60.50
13068;BME280;6600;51.362;6.686;2023-05-02T12:33:58;102197.38;;;14.38;59.96
13068;BME280;6600;51.362;6.686;2023-05-02T12:36:26;102195.16;;;14.00;60.35
13068;BME280;6600;51.362;6.686;2023-05-02T12:38:56;102198.53;;;14.09;59.08
13068;BME280;6600;51.362;6.686;2023-05-02T12:41:37;102195.59;;;14.04;59.55
13068;BME280;6600;51.362;6.686;2023-05-02T12:44:07;102190.78;;;14.66;59.54
13068;BME280;6600;51.362;6.686;2023-05-02T12:46:32;102193.72;;;14.72;57.62
13068;BME280;6600;51.362;6.686;2023-05-02T12:49:05;102196.69;;;14.16;58.79
13068;BME280;6600;51.362;6.686;2023-05-02T12:51:32;102191.47;;;14.08;59.89
13068;BME280;6600;51.362;6.686;2023-05-02T12:53:58;102206.81;;;14.14;61.53
13068;BME280;6600;51.362;6.686;2023-05-02T12:56:24;102211.69;;;14.45;61.58
13068;BME280;6600;51.362;6.686;2023-05-02T12:58:51;102209.22;;;14.43;61.04
13068;BME280;6600;51.362;6.686;2023-05-02T13:01:17;102212.22;;;14.14;62.71
13068;BME280;6600;51.362;6.686;2023-05-02T13:03:42;102218.00;;;14.04;61.71
13068;BME280;6600;51.362;6.686;2023-05-02T13:06:08;102218.69;;;13.72;63.70
13068;BME280;6600;51.362;6.686;2023-05-02T13:08:34;102213.78;;;13.89;62.79
13068;BME280;6600;51.362;6.686;2023-05-02T13:11:01;102212.41;;;14.06;61.78
13068;BME280;6600;51.362;6.686;2023-05-02T13:13:27;102208.72;;;14.20;61.68
13068;BME280;6600;51.362;6.686;2023-05-02T13:15:54;102209.44;;;14.48;61.16
13068;BME280;6600;51.362;6.686;2023-05-02T13:18:19;102212.38;;;14.66;61.67
13068;BME280;6600;51.362;6.686;2023-05-02T13:20:44;102211.94;;;14.43;60.44
13068;BME280;6600;51.362;6.686;2023-05-02T13:23:10;102211.34;;;14.74;60.26
13068;BME280;6600;51.362;6.686;2023-05-02T13:25:35;102207.38;;;14.77;58.74
13068;BME280;6600;51.362;6.686;2023-05-02T13:28:01;102206.34;;;14.91;59.00
13068;BME280;6600;51.362;6.686;2023-05-02T13:30:26;102206.16;;;14.92;58.45
13068;BME280;6600;51.362;6.686;2023-05-02T13:32:51;102216.13;;;14.79;58.68
13068;BME280;6600;51.362;6.686;2023-05-02T13:35:17;102216.31;;;14.64;57.73
13068;BME280;6600;51.362;6.686;2023-05-02T13:37:42;102218.59;;;14.93;57.79
13068;BME280;6600;51.362;6.686;2023-05-02T13:40:07;102221.09;;;14.82;57.45
13068;BME280;6600;51.362;6.686;2023-05-02T13:42:33;102221.94;;;14.82;58.90